Time;durP1;ratioP1;P1;durP2;ratioP2;P2;SDS_P1;SDS_P2;PMS_P1;PMS_P2;Temp;Humidity;BMP_temperature;BMP_pressure;BME280_temperature;BME280_humidity;BME280_pressure;Samples;Min_cycle;Max_cycle;Signal;HPM_P1;HPM_P2
2022/12/29 00:00:06;;;;;;;;;;;;;;;-143.57;100.00;51378.53;5060789;28;19928;-60
2022/12/29 00:02:39;;;;;;;;;;;;;;;-143.57;100.00;51406.34;5085208;28;19935;-61
2022/12/29 00:05:06;;;;;;;;;;;;;;;-143.57;100.00;51398.41;5080481;28;19928;-60
2022/12/29 00:07:33;;;;;;;;;;;;;;;-143.57;100.00;51382.50;5080523;28;19930;-60
2022/12/29 00:10:00;;;;;;;;;;;;;;;-143.57;100.00;51350.69;5080145;28;20595;-59
2022/12/29 00:15:36;;;;;;;;;;;;;;;-143.57;100.00;51418.28;5081522;28;19931;-62
2022/12/29 00:17:59;;;;;;;;;;;;;;;-143.57;100.00;51420.28;5080540;28;19931;-61
2022/12/29 00:44:04;;;;;;;;;;;;;;;-143.57;100.00;51414.31;5014903;28;20038;-60
2022/12/29 00:45:40;;;;;;;;;;;;;;;-143.57;100.00;51432.19;5083032;28;22060;-60
2022/12/29 00:48:06;;;;;;;;;;;;;;;-143.57;100.00;51442.16;5061167;28;20027;-61
2022/12/29 00:50:33;;;;;;;;;;;;;;;-143.57;100.00;51402.38;5083142;28;19934;-59
2022/12/29 00:52:59;;;;;;;;;;;;;;;-143.57;100.00;51374.56;5080636;28;19929;-61
2022/12/29 00:55:26;;;;;;;;;;;;;;;-143.57;100.00;51434.19;5066986;28;20351;-61
2022/12/29 00:57:53;;;;;;;;;;;;;;;-143.57;100.00;51414.31;5069545;28;19993;-60
2022/12/29 01:00:19;;;;;;;;;;;;;;;-143.57;100.00;51402.38;5080347;28;19939;-60
2022/12/29 01:02:46;;;;;;;;;;;;;;;-143.57;100.00;51448.09;5061306;28;19924;-60
2022/12/29 01:05:13;;;;;;;;;;;;;;;-143.57;100.00;51374.56;5078591;28;19939;-60
2022/12/29 01:07:39;;;;;;;;;;;;;;;-143.57;100.00;51406.34;5082097;28;20304;-60
2022/12/29 01:10:09;;;;;;;;;;;;;;;-143.57;100.00;51394.44;5061449;28;19931;-60
2022/12/29 01:12:41;;;;;;;;;;;;;;;-143.57;100.00;51426.25;5079454;28;20718;-60
2022/12/29 01:15:10;;;;;;;;;;;;;;;-143.57;100.00;51422.25;5053250;28;19959;-60
2022/12/29 01:17:37;;;;;;;;;;;;;;;-143.57;100.00;51406.34;5053065;28;19929;-60
2022/12/29 01:20:03;;;;;;;;;;;;;;;-143.57;100.00;51418.28;5054465;28;19935;-60
2022/12/29 01:22:30;;;;;;;;;;;;;;;-143.57;100.00;51410.34;5064711;28;19935;-60
2022/12/29 01:24:57;;;;;;;;;;;;;;;-143.57;100.00;51394.44;5053527;28;19936;-60
2022/12/29 01:27:23;;;;;;;;;;;;;;;-143.57;100.00;51406.34;5078536;28;19928;-59
2022/12/29 01:29:50;;;;;;;;;;;;;;;-143.57;100.00;51418.28;5077898;28;19924;-60
2022/12/29 01:32:17;;;;;;;;;;;;;;;-143.57;100.00;51426.25;5049015;28;19928;-61
2022/12/29 01:34:43;;;;;;;;;;;;;;;-143.57;100.00;51420.28;5073911;28;19955;-61
2022/12/29 01:37:10;;;;;;;;;;;;;;;-143.57;100.00;51406.34;5076009;28;20039;-61
2022/12/29 01:39:37;;;;;;;;;;;;;;;-143.57;100.00;51402.38;5075152;28;20026;-61
2022/12/29 01:42:04;;;;;;;;;;;;;;;-143.57;100.00;51448.09;5066056;28;19924;-61
2022/12/29 01:44:43;;;;;;;;;;;;;;;-143.57;100.00;51398.41;5045747;28;19935;-62
2022/12/29 01:47:10;;;;;;;;;;;;;;;-143.57;100.00;51394.44;5059189;28;19935;-62
2022/12/29 01:49:37;;;;;;;;;;;;;;;-143.57;100.00;51434.19;5052175;28;20416;-62
2022/12/29 01:52:06;;;;;;;;;;;;;;;-143.57;100.00;51426.25;5051884;28;19929;-62
2022/12/29 01:54:34;;;;;;;;;;;;;;;-143.57;100.00;51406.34;5045369;28;20009;-62
2022/12/29 01:57:03;;;;;;;;;;;;;;;-143.57;100.00;51434.19;5058056;28;19979;-62
2022/12/29 01:59:32;;;;;;;;;;;;;;;-143.57;100.00;51394.44;5034352;28;19925;-62
2022/12/29 02:02:00;;;;;;;;;;;;;;;-143.57;100.00;51418.28;5056314;28;20323;-61
2022/12/29 02:04:29;;;;;;;;;;;;;;;-143.57;100.00;51438.16;5037536;28;19928;-62
2022/12/29 02:06:58;;;;;;;;;;;;;;;-143.57;100.00;51428.22;5064255;28;19925;-61
2022/12/29 02:09:24;;;;;;;;;;;;;;;-143.57;100.00;51434.19;5035803;28;19928;-61
2022/12/29 02:11:52;;;;;;;;;;;;;;;-143.57;100.00;51384.50;5036220;28;19939;-62
2022/12/29 02:14:19;;;;;;;;;;;;;;;-143.57;100.00;51414.31;5058505;28;20551;-61
2022/12/29 02:16:45;;;;;;;;;;;;;;;-143.57;100.00;51384.50;5055685;28;19924;-62
2022/12/29 02:19:24;;;;;;;;;;;;;;;-143.57;100.00;51426.25;5041595;28;19970;-61
2022/12/29 02:22:03;;;;;;;;;;;;;;;-143.57;100.00;51394.44;5046445;28;19935;-61
2022/12/29 02:24:30;;;;;;;;;;;;;;;-143.57;100.00;51416.28;5035432;28;19931;-61
2022/12/29 02:27:15;;;;;;;;;;;;;;;-143.57;100.00;51398.41;5044191;28;19929;-61
2022/12/29 02:29:48;;;;;;;;;;;;;;;-143.57;100.00;51402.38;5041323;28;19929;-61
2022/12/29 02:32:26;;;;;;;;;;;;;;;-143.57;100.00;51406.34;5045510;28;19978;-61
2022/12/29 02:34:53;;;;;;;;;;;;;;;-143.57;100.00;51414.31;5030898;28;20437;-61
2022/12/29 02:37:39;;;;;;;;;;;;;;;-143.57;100.00;51418.28;5025433;28;19928;-61
2022/12/29 02:40:15;;;;;;;;;;;;;;;-143.57;100.00;51420.28;5048666;28;20625;-61
2022/12/29 02:42:58;;;;;;;;;;;;;;;-143.57;100.00;51426.25;5034564;28;20419;-61
2022/12/29 02:45:45;;;;;;;;;;;;;;;-143.57;100.00;51380.50;5033326;28;20679;-61
2022/12/29 02:48:23;;;;;;;;;;;;;;;-143.57;100.00;51489.84;5021786;28;20611;-61
2022/12/29 02:51:04;;;;;;;;;;;;;;;-143.57;100.00;51406.34;5036532;28;20342;-61
2022/12/29 02:56:18;;;;;;;;;;;;;;;-143.57;100.00;51424.25;5052527;28;20593;-61
2022/12/29 02:58:45;;;;;;;;;;;;;;;-143.57;100.00;51374.56;5029888;28;19936;-61
2022/12/29 03:01:15;;;;;;;;;;;;;;;-143.57;100.00;51422.25;5039901;28;19928;-61
2022/12/29 03:03:59;;;;;;;;;;;;;;;-143.57;100.00;51422.25;5055403;28;19924;-63
2022/12/29 03:06:25;;;;;;;;;;;;;;;-143.57;100.00;51410.34;5030682;28;19925;-61
2022/12/29 03:09:02;;;;;;;;;;;;;;;-143.57;100.00;51394.44;5039921;28;20009;-61
2022/12/29 03:17:24;;;;;;;;;;;;;;;-143.57;100.00;51394.44;5040649;28;19925;-61
2022/12/29 03:19:54;;;;;;;;;;;;;;;-143.57;100.00;51446.13;5042700;28;19936;-61
2022/12/29 03:22:26;;;;;;;;;;;;;;;-143.57;100.00;51426.25;5038745;28;20857;-61
2022/12/29 03:25:12;;;;;;;;;;;;;;;-143.57;100.00;51402.38;5040836;28;19932;-61
2022/12/29 03:27:42;;;;;;;;;;;;;;;-143.57;100.00;51438.16;5044772;28;19932;-61
2022/12/29 03:30:09;;;;;;;;;;;;;;;-143.57;100.00;51402.38;5039574;28;19932;-61
2022/12/29 03:32:40;;;;;;;;;;;;;;;-143.57;100.00;51406.34;5038656;28;19924;-61
2022/12/29 03:35:11;;;;;;;;;;;;;;;-143.57;100.00;51414.31;5041089;28;20021;-61
2022/12/29 03:37:42;;;;;;;;;;;;;;;-143.57;100.00;51466.00;5048697;28;19932;-61
2022/12/29 03:40:09;;;;;;;;;;;;;;;-143.57;100.00;51450.09;5033663;28;19925;-61
2022/12/29 03:42:36;;;;;;;;;;;;;;;-143.57;100.00;51400.41;5053758;28;19963;-61
2022/12/29 03:45:04;;;;;;;;;;;;;;;-143.57;100.00;51410.34;5058238;28;19935;-61
2022/12/29 03:47:31;;;;;;;;;;;;;;;-143.57;100.00;51434.19;5061447;28;19931;-61
2022/12/29 03:49:59;;;;;;;;;;;;;;;-143.57;100.00;51376.53;5056516;28;20008;-62
2022/12/29 03:52:28;;;;;;;;;;;;;;;-143.57;100.00;51442.16;5059389;28;19924;-61
2022/12/29 03:54:54;;;;;;;;;;;;;;;-143.57;100.00;51418.28;5056397;28;19956;-61
2022/12/29 03:57:21;;;;;;;;;;;;;;;-143.57;100.00;51366.59;5061443;28;20347;-61
2022/12/29 04:00:00;;;;;;;;;;;;;;;-143.57;100.00;51438.16;5053760;28;20595;-61
2022/12/29 04:02:29;;;;;;;;;;;;;;;-143.57;100.00;51398.41;5075985;28;19924;-61
2022/12/29 04:04:56;;;;;;;;;;;;;;;-143.57;100.00;51406.34;5058103;28;19936;-61
2022/12/29 04:07:23;;;;;;;;;;;;;;;-143.57;100.00;51394.44;5058677;28;19935;-61
2022/12/29 04:09:52;;;;;;;;;;;;;;;-143.57;100.00;51414.31;5055536;28;19936;-61
2022/12/29 04:12:22;;;;;;;;;;;;;;;-143.57;100.00;51414.31;5056308;28;19925;-62
2022/12/29 04:14:49;;;;;;;;;;;;;;;-143.57;100.00;51406.34;5055257;28;19935;-63
2022/12/29 04:17:17;;;;;;;;;;;;;;;-143.57;100.00;51430.22;5056699;28;20411;-62
2022/12/29 04:19:45;;;;;;;;;;;;;;;-143.57;100.00;51402.38;5053850;28;19928;-61
2022/12/29 04:22:11;;;;;;;;;;;;;;;-143.57;100.00;51412.31;5068132;28;19934;-62
2022/12/29 04:24:39;;;;;;;;;;;;;;;-143.57;100.00;51450.09;5059982;28;19924;-62
2022/12/29 04:27:05;;;;;;;;;;;;;;;-143.57;100.00;51410.34;5056115;28;19935;-61
2022/12/29 04:29:51;;;;;;;;;;;;;;;-143.57;100.00;51410.34;5074372;28;19935;-62
2022/12/29 04:32:44;;;;;;;;;;;;;;;-143.57;100.00;51406.34;5065766;28;19943;-61
2022/12/29 04:35:11;;;;;;;;;;;;;;;-143.57;100.00;51414.31;5053978;28;20600;-62
2022/12/29 04:37:40;;;;;;;;;;;;;;;-143.57;100.00;51414.31;5055746;28;20015;-61
2022/12/29 04:40:08;;;;;;;;;;;;;;;-143.57;100.00;51410.34;5055389;28;19933;-61
2022/12/29 04:42:34;;;;;;;;;;;;;;;-143.57;100.00;51394.44;5057095;28;19932;-61
2022/12/29 04:45:02;;;;;;;;;;;;;;;-143.57;100.00;51410.34;5061640;28;19924;-62
2022/12/29 04:47:47;;;;;;;;;;;;;;;-143.57;100.00;51394.44;5058969;28;19958;-61
2022/12/29 04:50:28;;;;;;;;;;;;;;;-143.57;100.00;51426.25;5060799;28;19935;-61
2022/12/29 04:53:13;;;;;;;;;;;;;;;-143.57;100.00;51414.31;5057750;28;19932;-61
2022/12/29 04:55:41;;;;;;;;;;;;;;;-143.57;100.00;51378.53;5062109;28;19924;-62
2022/12/29 04:58:08;;;;;;;;;;;;;;;-143.57;100.00;51438.16;5067314;28;19928;-61
2022/12/29 05:00:35;;;;;;;;;;;;;;;-143.57;100.00;51450.09;5060566;28;19924;-61
2022/12/29 05:03:02;;;;;;;;;;;;;;;-143.57;100.00;51420.28;5058321;28;20074;-62
2022/12/29 05:05:29;;;;;;;;;;;;;;;-143.57;100.00;51438.16;5058766;28;20456;-61
2022/12/29 05:07:58;;;;;;;;;;;;;;;-143.57;100.00;51402.38;5058872;28;19924;-62
2022/12/29 05:10:25;;;;;;;;;;;;;;;-143.57;100.00;51410.34;5079372;28;20579;-61
2022/12/29 05:12:53;;;;;;;;;;;;;;;-143.57;100.00;51458.03;5076885;28;19928;-61
2022/12/29 05:15:20;;;;;;;;;;;;;;;-143.57;100.00;51394.44;5062502;28;19924;-61
2022/12/29 05:17:46;;;;;;;;;;;;;;;-143.57;100.00;51416.28;5083623;28;20423;-61
2022/12/29 05:20:13;;;;;;;;;;;;;;;-143.57;100.00;51388.47;5083920;28;19929;-61
2022/12/29 05:22:41;;;;;;;;;;;;;;;-143.57;100.00;51418.28;5062216;28;20331;-62
2022/12/29 05:25:08;;;;;;;;;;;;;;;-143.57;100.00;51388.47;5060044;28;19928;-61
2022/12/29 05:27:47;;;;;;;;;;;;;;;-143.57;100.00;51426.25;5065333;28;19928;-61
2022/12/29 05:30:28;;;;;;;;;;;;;;;-143.57;100.00;51406.34;5081278;28;19928;-60
2022/12/29 05:32:55;;;;;;;;;;;;;;;-143.57;100.00;51416.28;5061707;28;19932;-61
2022/12/29 05:35:22;;;;;;;;;;;;;;;-143.57;100.00;51406.34;5061920;28;20032;-60
2022/12/29 05:37:50;;;;;;;;;;;;;;;-143.57;100.00;51406.34;5062881;28;19924;-60
2022/12/29 05:40:16;;;;;;;;;;;;;;;-143.57;100.00;51422.25;5062302;28;19932;-60
2022/12/29 05:42:44;;;;;;;;;;;;;;;-143.57;100.00;51442.16;5058917;28;19932;-60
2022/12/29 05:45:30;;;;;;;;;;;;;;;-143.57;100.00;51394.44;5057451;28;19924;-60
2022/12/29 05:48:15;;;;;;;;;;;;;;;-143.57;100.00;51406.34;5062240;28;20490;-60
2022/12/29 05:51:05;;;;;;;;;;;;;;;-143.57;100.00;51424.25;5050884;28;19931;-60
2022/12/29 05:53:44;;;;;;;;;;;;;;;-143.57;100.00;51422.25;5040234;28;20011;-60
2022/12/29 05:56:11;;;;;;;;;;;;;;;-143.57;100.00;51438.16;5062245;28;19928;-60
2022/12/29 05:58:38;;;;;;;;;;;;;;;-143.57;100.00;51410.34;5043266;28;20653;-60
2022/12/29 06:01:05;;;;;;;;;;;;;;;-143.57;100.00;51430.22;5042183;28;19957;-60
2022/12/29 06:03:32;;;;;;;;;;;;;;;-143.57;100.00;51410.34;5039235;28;19928;-60
2022/12/29 06:05:59;;;;;;;;;;;;;;;-143.57;100.00;51398.41;5042764;28;19928;-60
2022/12/29 06:08:27;;;;;;;;;;;;;;;-143.57;100.00;51418.28;5042854;28;20301;-61
2022/12/29 06:10:54;;;;;;;;;;;;;;;-143.57;100.00;51434.19;5040521;28;19951;-60
2022/12/29 06:13:20;;;;;;;;;;;;;;;-143.57;100.00;51434.19;5038763;28;19956;-61
2022/12/29 06:15:49;;;;;;;;;;;;;;;-143.57;100.00;51382.50;5046087;28;19938;-61
2022/12/29 06:18:17;;;;;;;;;;;;;;;-143.57;100.00;51390.47;5044221;28;19924;-61
2022/12/29 06:20:46;;;;;;;;;;;;;;;-143.57;100.00;51388.47;5066029;28;19996;-61
2022/12/29 06:23:14;;;;;;;;;;;;;;;-143.57;100.00;51454.06;5043034;28;19937;-61
2022/12/29 06:25:41;;;;;;;;;;;;;;;-143.57;100.00;51454.06;5040586;28;19932;-60
2022/12/29 06:28:08;;;;;;;;;;;;;;;-143.57;100.00;51450.09;5041150;28;19928;-60
2022/12/29 06:30:35;;;;;;;;;;;;;;;-143.57;100.00;51420.28;5039911;28;19932;-61
2022/12/29 06:33:02;;;;;;;;;;;;;;;-143.57;100.00;51414.31;5044090;28;19955;-60
2022/12/29 06:35:29;;;;;;;;;;;;;;;-143.57;100.00;51436.19;5037690;28;19982;-60
2022/12/29 06:37:55;;;;;;;;;;;;;;;-143.57;100.00;51446.13;5040905;28;20644;-60
2022/12/29 06:40:22;;;;;;;;;;;;;;;-143.57;100.00;51414.31;5038968;28;19999;-61
2022/12/29 06:43:12;;;;;;;;;;;;;;;-143.57;100.00;51410.34;5051409;28;19928;-60
2022/12/29 06:45:58;;;;;;;;;;;;;;;-143.57;100.00;51426.25;5076880;28;19924;-60
2022/12/29 06:48:25;;;;;;;;;;;;;;;-143.57;100.00;51434.19;5077718;28;19956;-61
2022/12/29 06:50:51;;;;;;;;;;;;;;;-143.57;100.00;51418.28;5080815;28;20053;-60
2022/12/29 06:53:18;;;;;;;;;;;;;;;-143.57;100.00;51420.28;5084332;28;20006;-61
2022/12/29 06:55:45;;;;;;;;;;;;;;;-143.57;100.00;51424.25;5080729;28;20458;-61
2022/12/29 06:58:11;;;;;;;;;;;;;;;-143.57;100.00;51410.34;5084356;28;19928;-60
2022/12/29 07:00:39;;;;;;;;;;;;;;;-143.57;100.00;51422.25;5084770;28;19971;-60
2022/12/29 07:03:05;;;;;;;;;;;;;;;-143.57;100.00;51412.31;5080847;28;20025;-61
2022/12/29 07:05:32;;;;;;;;;;;;;;;-143.57;100.00;51414.31;5079126;28;20007;-60
2022/12/29 07:07:59;;;;;;;;;;;;;;;-143.57;100.00;51398.41;5078671;28;19963;-60
2022/12/29 07:10:26;;;;;;;;;;;;;;;-143.57;100.00;51438.16;5080367;28;20684;-60
2022/12/29 07:12:53;;;;;;;;;;;;;;;-143.57;100.00;51430.22;5079787;28;19928;-61
2022/12/29 07:15:20;;;;;;;;;;;;;;;-143.57;100.00;51438.16;5080760;28;20399;-62
2022/12/29 07:17:46;;;;;;;;;;;;;;;-143.57;100.00;51426.25;5078712;28;20074;-61
2022/12/29 07:20:13;;;;;;;;;;;;;;;-143.57;100.00;51418.28;5081350;28;19924;-60
2022/12/29 07:22:39;;;;;;;;;;;;;;;-143.57;100.00;51438.16;5078258;28;20790;-61
2022/12/29 07:25:06;;;;;;;;;;;;;;;-143.57;100.00;51426.25;5075688;28;19924;-61
2022/12/29 07:27:33;;;;;;;;;;;;;;;-143.57;100.00;51382.50;5078003;28;19924;-60
2022/12/29 07:29:59;;;;;;;;;;;;;;;-143.57;100.00;51418.28;5078336;28;20369;-61
2022/12/29 07:32:26;;;;;;;;;;;;;;;-143.57;100.00;51440.16;5074654;28;19931;-61
2022/12/29 07:34:53;;;;;;;;;;;;;;;-143.57;100.00;51416.28;5076646;28;19964;-60
2022/12/29 07:37:20;;;;;;;;;;;;;;;-143.57;100.00;51412.31;5079231;28;19928;-60
2022/12/29 07:39:47;;;;;;;;;;;;;;;-143.57;100.00;51444.13;5071515;28;19939;-60
2022/12/29 07:42:13;;;;;;;;;;;;;;;-143.57;100.00;51410.34;5077428;28;19924;-60
2022/12/29 07:44:42;;;;;;;;;;;;;;;-143.57;100.00;51394.44;5043865;28;19933;-60
2022/12/29 07:47:15;;;;;;;;;;;;;;;-143.57;100.00;51440.16;5079757;28;20102;-60
2022/12/29 07:49:42;;;;;;;;;;;;;;;-143.57;100.00;51410.34;5054414;28;19928;-60
2022/12/29 07:52:08;;;;;;;;;;;;;;;-143.57;100.00;51450.09;5081654;28;20398;-60
2022/12/29 07:54:35;;;;;;;;;;;;;;;-143.57;100.00;51402.38;5076826;28;19928;-60
2022/12/29 07:57:01;;;;;;;;;;;;;;;-143.57;100.00;51394.44;5077884;28;19932;-61
2022/12/29 07:59:28;;;;;;;;;;;;;;;-143.57;100.00;51422.25;5076190;28;19976;-60
2022/12/29 08:01:55;;;;;;;;;;;;;;;-143.57;100.00;51400.41;5074317;28;19928;-60
2022/12/29 08:04:21;;;;;;;;;;;;;;;-143.57;100.00;51458.03;5077798;28;20485;-61
2022/12/29 08:06:49;;;;;;;;;;;;;;;-143.57;100.00;51414.31;5080063;28;21303;-60
2022/12/29 08:09:16;;;;;;;;;;;;;;;-143.57;100.00;51410.34;5082605;28;19935;-60
2022/12/29 08:11:48;;;;;;;;;;;;;;;-143.57;100.00;51414.31;5081097;28;20012;-60
2022/12/29 08:14:14;;;;;;;;;;;;;;;-143.57;100.00;51406.34;5086529;28;19928;-60
2022/12/29 08:16:41;;;;;;;;;;;;;;;-143.57;100.00;51422.25;5082793;28;19939;-60
2022/12/29 08:19:09;;;;;;;;;;;;;;;-143.57;100.00;51430.22;5080039;28;19928;-61
2022/12/29 08:21:36;;;;;;;;;;;;;;;-143.57;100.00;51402.38;5078231;28;20407;-59
2022/12/29 08:24:03;;;;;;;;;;;;;;;-143.57;100.00;51418.28;5080562;28;20009;-60
2022/12/29 08:26:29;;;;;;;;;;;;;;;-143.57;100.00;51412.31;5079682;28;20632;-59
2022/12/29 08:28:56;;;;;;;;;;;;;;;-143.57;100.00;51414.31;5082454;28;20733;-60
2022/12/29 08:31:23;;;;;;;;;;;;;;;-143.57;100.00;51402.38;5082305;28;20021;-60
2022/12/29 08:33:50;;;;;;;;;;;;;;;-143.57;100.00;51400.41;5080496;28;20407;-60
2022/12/29 08:36:17;;;;;;;;;;;;;;;-143.57;100.00;51402.38;5082047;28;19997;-60
2022/12/29 08:38:44;;;;;;;;;;;;;;;-143.57;100.00;51414.31;5082836;28;19928;-59
2022/12/29 08:41:11;;;;;;;;;;;;;;;-143.57;100.00;51410.34;5081977;28;19990;-59
2022/12/29 08:43:38;;;;;;;;;;;;;;;-143.57;100.00;51426.25;5080252;28;19964;-59
2022/12/29 08:46:04;;;;;;;;;;;;;;;-143.57;100.00;51414.31;5083690;28;19935;-59
2022/12/29 08:48:31;;;;;;;;;;;;;;;-143.57;100.00;51410.34;5081014;28;19928;-60
2022/12/29 08:50:58;;;;;;;;;;;;;;;-143.57;100.00;51386.47;5063047;28;19939;-60
2022/12/29 08:53:24;;;;;;;;;;;;;;;-143.57;100.00;51462.03;5081022;28;19935;-60
2022/12/29 08:55:56;;;;;;;;;;;;;;;-143.57;100.00;51388.47;5081629;28;19928;-59
2022/12/29 08:58:32;;;;;;;;;;;;;;;-143.57;100.00;51406.34;5063415;28;20784;-61
2022/12/29 09:01:00;;;;;;;;;;;;;;;-143.57;100.00;51402.38;5061343;28;20010;-61
2022/12/29 09:03:26;;;;;;;;;;;;;;;-143.57;100.00;51450.09;5061204;28;19924;-60
2022/12/29 09:06:15;;;;;;;;;;;;;;;-143.57;100.00;51414.31;5083363;28;20545;-60
2022/12/29 09:08:41;;;;;;;;;;;;;;;-143.57;100.00;51418.28;5083116;28;19939;-61
2022/12/29 09:11:09;;;;;;;;;;;;;;;-143.57;100.00;51442.16;5080280;28;19928;-59
2022/12/29 09:13:36;;;;;;;;;;;;;;;-143.57;100.00;51426.25;5080363;28;20600;-61
2022/12/29 09:16:03;;;;;;;;;;;;;;;-143.57;100.00;51432.19;5081167;28;20395;-61
2022/12/29 09:18:30;;;;;;;;;;;;;;;-143.57;100.00;51410.34;5083801;28;21351;-60
2022/12/29 09:21:01;;;;;;;;;;;;;;;-143.57;100.00;51438.16;5081952;28;20394;-60
2022/12/29 09:23:28;;;;;;;;;;;;;;;-143.57;100.00;51442.16;5079557;28;19929;-60
2022/12/29 09:25:55;;;;;;;;;;;;;;;-143.57;100.00;51414.31;5077478;28;19928;-60
2022/12/29 09:28:22;;;;;;;;;;;;;;;-143.57;100.00;51402.38;5082195;28;19939;-60
2022/12/29 09:30:49;;;;;;;;;;;;;;;-143.57;100.00;51398.41;5080170;28;20602;-60
2022/12/29 09:33:17;;;;;;;;;;;;;;;-143.57;100.00;51416.28;5082404;28;19928;-60
2022/12/29 09:35:44;;;;;;;;;;;;;;;-143.57;100.00;51402.38;5075063;28;19927;-61
2022/12/29 09:38:11;;;;;;;;;;;;;;;-143.57;100.00;51422.25;5077718;28;20399;-60
2022/12/29 09:40:39;;;;;;;;;;;;;;;-143.57;100.00;51426.25;5076935;28;20078;-60
2022/12/29 09:43:24;;;;;;;;;;;;;;;-143.57;100.00;51444.13;5061578;28;19924;-61
2022/12/29 09:45:59;;;;;;;;;;;;;;;-143.57;100.00;51430.22;5072450;28;19936;-60
2022/12/29 09:48:29;;;;;;;;;;;;;;;-143.57;100.00;51410.34;5058967;28;20044;-61
2022/12/29 09:50:58;;;;;;;;;;;;;;;-143.57;100.00;51368.59;5058735;28;20772;-60
2022/12/29 09:53:24;;;;;;;;;;;;;;;-143.57;100.00;51400.41;5060613;28;19993;-61
2022/12/29 09:55:54;;;;;;;;;;;;;;;-143.57;100.00;51404.38;5061330;28;19936;-60
2022/12/29 09:58:30;;;;;;;;;;;;;;;-143.57;100.00;51370.56;5057214;28;20692;-60
2022/12/29 10:01:03;;;;;;;;;;;;;;;-143.57;100.00;51434.19;5062222;28;20224;-60
2022/12/29 10:03:50;;;;;;;;;;;;;;;-143.57;100.00;51380.50;5051228;28;20031;-60
2022/12/29 10:06:28;;;;;;;;;;;;;;;-143.57;100.00;51394.44;5056415;28;19994;-61
2022/12/29 10:09:17;;;;;;;;;;;;;;;-143.57;100.00;51410.34;5055308;28;20522;-60
2022/12/29 10:11:53;;;;;;;;;;;;;;;-143.57;100.00;51378.53;5054772;28;19929;-60
2022/12/29 10:14:38;;;;;;;;;;;;;;;-143.57;100.00;51430.22;5037856;28;20429;-60
2022/12/29 10:17:24;;;;;;;;;;;;;;;-143.57;100.00;51410.34;5052431;28;21345;-61
2022/12/29 10:19:57;;;;;;;;;;;;;;;-143.57;100.00;51406.34;5055973;28;19935;-60
2022/12/29 10:22:23;;;;;;;;;;;;;;;-143.57;100.00;51400.41;5058543;28;20634;-61
2022/12/29 10:24:51;;;;;;;;;;;;;;;-143.57;100.00;51398.41;5056426;28;20327;-61
2022/12/29 10:27:17;;;;;;;;;;;;;;;-143.57;100.00;51422.25;5039233;28;19931;-61
2022/12/29 10:29:55;;;;;;;;;;;;;;;-143.57;100.00;51386.47;5057668;28;19932;-61
2022/12/29 10:32:34;;;;;;;;;;;;;;;-143.57;100.00;51384.50;5060156;28;19928;-61
2022/12/29 10:35:22;;;;;;;;;;;;;;;-143.57;100.00;51406.34;5057842;28;19933;-61
2022/12/29 10:37:56;;;;;;;;;;;;;;;-143.57;100.00;51404.38;5053454;28;19940;-67
2022/12/29 10:40:27;;;;;;;;;;;;;;;-143.57;100.00;51410.34;5055496;28;19933;-65
2022/12/29 10:42:56;;;;;;;;;;;;;;;-143.57;100.00;51412.31;5076139;28;20526;-65
2022/12/29 10:45:25;;;;;;;;;;;;;;;-143.57;100.00;51418.28;5074309;28;20609;-65
2022/12/29 10:47:58;;;;;;;;;;;;;;;-143.57;100.00;51394.44;5075555;28;20426;-65
2022/12/29 10:50:25;;;;;;;;;;;;;;;-143.57;100.00;51398.41;5074321;28;20536;-65
2022/12/29 10:52:53;;;;;;;;;;;;;;;-143.57;100.00;51394.44;5072247;28;19971;-66
2022/12/29 10:55:30;;;;;;;;;;;;;;;-143.57;100.00;51422.25;5074919;28;19927;-66
2022/12/29 10:58:00;;;;;;;;;;;;;;;-143.57;100.00;51374.56;5073736;28;20479;-67
2022/12/29 11:00:27;;;;;;;;;;;;;;;-143.57;100.00;51414.31;5073031;28;19935;-67
2022/12/29 11:03:00;;;;;;;;;;;;;;;-143.57;100.00;51438.16;5079888;28;19924;-67
2022/12/29 11:05:35;;;;;;;;;;;;;;;-143.57;100.00;51384.50;5075825;28;19931;-66
2022/12/29 11:08:04;;;;;;;;;;;;;;;-143.57;100.00;51374.56;5074882;28;19959;-66
2022/12/29 11:10:34;;;;;;;;;;;;;;;-143.57;100.00;51422.25;5079720;28;20662;-67
2022/12/29 11:13:10;;;;;;;;;;;;;;;-143.57;100.00;51386.47;5078635;28;19932;-67
2022/12/29 11:15:41;;;;;;;;;;;;;;;-143.57;100.00;51394.44;5080003;28;19959;-67
2022/12/29 11:18:18;;;;;;;;;;;;;;;-143.57;100.00;51410.34;5074074;28;20714;-66
2022/12/29 11:20:44;;;;;;;;;;;;;;;-143.57;100.00;51390.47;5077618;28;19932;-67
2022/12/29 11:23:22;;;;;;;;;;;;;;;-143.57;100.00;51374.56;5077047;28;20729;-67
2022/12/29 11:26:07;;;;;;;;;;;;;;;-143.57;100.00;51360.63;5075485;28;19943;-66
2022/12/29 11:28:34;;;;;;;;;;;;;;;-143.57;100.00;51418.28;5074968;28;19930;-67
2022/12/29 11:31:02;;;;;;;;;;;;;;;-143.57;100.00;51426.25;5077625;28;20794;-66
2022/12/29 11:33:30;;;;;;;;;;;;;;;-143.57;100.00;51368.59;5077690;28;19952;-67
2022/12/29 11:36:03;;;;;;;;;;;;;;;-143.57;100.00;51366.59;5082427;28;19928;-67
2022/12/29 11:38:38;;;;;;;;;;;;;;;-143.57;100.00;51378.53;5084268;28;20015;-67
2022/12/29 11:41:06;;;;;;;;;;;;;;;-143.57;100.00;51358.66;5082924;28;19936;-67
2022/12/29 11:43:36;;;;;;;;;;;;;;;-143.57;100.00;51390.47;5083124;28;19985;-67
2022/12/29 11:46:04;;;;;;;;;;;;;;;-143.57;100.00;51414.31;5085314;28;19957;-67
2022/12/29 11:48:39;;;;;;;;;;;;;;;-143.57;100.00;51438.16;5085678;28;19940;-66
2022/12/29 11:51:06;;;;;;;;;;;;;;;-143.57;100.00;51410.34;5079212;28;19943;-65
2022/12/29 11:53:44;;;;;;;;;;;;;;;-143.57;100.00;51374.56;5084691;28;21210;-66
2022/12/29 11:56:14;;;;;;;;;;;;;;;-143.57;100.00;51422.25;5081191;28;19928;-67
2022/12/29 11:58:41;;;;;;;;;;;;;;;-143.57;100.00;51364.63;5084172;28;20038;-66
2022/12/29 12:01:15;;;;;;;;;;;;;;;-143.57;100.00;51378.53;5085494;28;19940;-66
2022/12/29 12:03:47;;;;;;;;;;;;;;;-143.57;100.00;51434.19;5085421;28;19935;-66
2022/12/29 12:06:16;;;;;;;;;;;;;;;-143.57;100.00;51366.59;5081611;28;20472;-66
2022/12/29 12:08:47;;;;;;;;;;;;;;;-143.57;100.00;51390.47;5084994;28;21285;-67
2022/12/29 12:11:23;;;;;;;;;;;;;;;-143.57;100.00;51386.47;5082190;28;20012;-67
2022/12/29 12:13:57;;;;;;;;;;;;;;;-143.57;66.82;51386.47;5104387;27;19924;-67
2022/12/29 12:16:33;;;;;;;;;;;;;;;-143.57;62.91;51378.53;5078408;28;19928;-67
2022/12/29 12:19:15;;;;;;;;;;;;;;;-143.57;58.11;51416.28;5081986;28;19934;-66
2022/12/29 12:21:44;;;;;;;;;;;;;;;-143.57;52.16;51366.59;5080683;28;20003;-65
2022/12/29 12:24:31;;;;;;;;;;;;;;;-143.57;45.60;51362.63;5087550;28;19928;-65
2022/12/29 12:27:00;;;;;;;;;;;;;;;-143.57;42.08;51346.72;5074360;28;19924;-66
2022/12/29 12:29:41;;;;;;;;;;;;;;;-143.57;42.33;51362.63;5086158;28;19927;-66
2022/12/29 12:32:21;;;;;;;;;;;;;;;-143.57;43.26;51346.72;5084013;28;20425;-66
2022/12/29 12:34:49;;;;;;;;;;;;;;;-143.57;45.69;51368.59;5082084;28;19928;-66
2022/12/29 12:37:28;;;;;;;;;;;;;;;-143.57;47.43;51342.75;5078851;28;19924;-65
2022/12/29 12:40:07;;;;;;;;;;;;;;;-143.57;45.56;51370.56;5082616;28;20779;-67
2022/12/29 12:42:40;;;;;;;;;;;;;;;-143.57;43.94;51354.66;5063507;28;20634;-66
2022/12/29 12:45:19;;;;;;;;;;;;;;;-143.57;42.52;51342.75;5061455;28;20426;-66
2022/12/29 12:48:00;;;;;;;;;;;;;;;-143.57;41.14;51346.72;5056688;28;19935;-66
2022/12/29 12:50:27;;;;;;;;;;;;;;;-143.57;40.07;51350.69;5061588;28;19928;-66
2022/12/29 12:52:56;;;;;;;;;;;;;;;-143.57;40.19;51362.63;5062404;28;19933;-66
2022/12/29 12:55:23;;;;;;;;;;;;;;;-143.57;40.19;51406.34;5058502;28;20378;-67
2022/12/29 12:57:49;;;;;;;;;;;;;;;-143.57;40.48;51342.75;5059991;28;19931;-66
2022/12/29 13:00:18;;;;;;;;;;;;;;;-143.57;40.84;51342.75;5057348;28;19928;-67
2022/12/29 13:08:58;;;;;;;19.13;17.05;;;;;;;-143.57;41.68;51303.00;5059540;27;20540;-81
2022/12/29 13:11:47;;;;;;;15.82;14.18;;;;;;;-143.57;42.02;51301.00;5056271;28;20045;-65
2022/12/29 13:14:14;;;;;;;18.98;14.93;;;;;;;-143.57;51.88;51358.66;5057604;28;20164;-66